createdAt,value
2023-04-02T00:01:02.910Z,8.52
2023-04-02T00:03:45.415Z,8.58
2023-04-02T00:06:33.220Z,8.51
2023-04-02T00:09:18.273Z,8.56
2023-04-02T00:11:51.053Z,8.48
2023-04-02T00:14:34.130Z,8.60
2023-04-02T00:17:06.105Z,8.65
2023-04-02T00:20:02.744Z,8.50
2023-04-02T00:22:32.776Z,8.54
2023-04-02T00:25:13.706Z,8.47
2023-04-02T00:27:43.298Z,8.42
2023-04-02T00:30:13.404Z,8.56
2023-04-02T00:32:42.811Z,8.43
2023-04-02T00:35:26.831Z,8.38
2023-04-02T00:37:55.710Z,8.38
2023-04-02T00:40:27.135Z,8.28
2023-04-02T00:42:59.752Z,8.27
2023-04-02T00:45:30.191Z,8.33
2023-04-02T00:48:01.199Z,8.31
2023-04-02T00:50:36.628Z,8.36
2023-04-02T00:53:29.060Z,8.39
2023-04-02T00:55:58.950Z,8.34
2023-04-02T00:58:32.151Z,8.27
2023-04-02T01:01:01.888Z,7.94
2023-04-02T01:03:35.177Z,7.96
2023-04-02T01:06:03.957Z,8.02
2023-04-02T01:08:57.107Z,7.83
2023-04-02T01:11:45.965Z,7.71
2023-04-02T01:14:39.933Z,7.60
2023-04-02T01:17:49.248Z,7.70
2023-04-02T01:20:29.481Z,7.68
2023-04-02T01:23:13.703Z,7.73
2023-04-02T01:26:24.922Z,7.66
2023-04-02T01:28:52.027Z,7.53
2023-04-02T01:31:19.732Z,7.48
2023-04-02T01:33:48.448Z,7.48
2023-04-02T01:36:26.475Z,7.60
2023-04-02T01:39:20.944Z,7.54
2023-04-02T01:41:57.274Z,7.45
2023-04-02T01:44:55.001Z,7.40
2023-04-02T01:47:29.123Z,7.29
2023-04-02T01:50:13.292Z,7.37
2023-04-02T01:52:45.105Z,7.32
2023-04-02T01:55:18.226Z,7.35
2023-04-02T01:57:51.514Z,7.32
2023-04-02T02:00:28.231Z,7.25
2023-04-02T02:02:55.655Z,7.15
2023-04-02T02:05:24.224Z,7.22
2023-04-02T02:07:53.756Z,7.23
2023-04-02T02:10:30.385Z,7.23
2023-04-02T02:13:00.588Z,7.21
2023-04-02T02:15:29.010Z,7.12
2023-04-02T02:18:04.679Z,7.23
2023-04-02T02:20:34.814Z,7.31
2023-04-02T02:23:04.598Z,7.23
2023-04-02T02:25:38.189Z,7.23
2023-04-02T02:28:24.890Z,7.10
2023-04-02T02:31:07.969Z,7.03
2023-04-02T02:33:42.041Z,6.96
2023-04-02T02:36:13.748Z,6.91
2023-04-02T02:38:55.094Z,6.90
2023-04-02T02:41:36.449Z,6.76
2023-04-02T02:44:09.775Z,6.77
2023-04-02T02:46:46.304Z,6.80
2023-04-02T02:49:18.299Z,6.75
2023-04-02T02:51:54.385Z,6.63
2023-04-02T02:54:22.848Z,6.61
2023-04-02T02:57:04.152Z,6.63
2023-04-02T02:59:33.096Z,6.55
2023-04-02T03:02:02.964Z,6.51
2023-04-02T03:04:35.991Z,6.51
2023-04-02T03:07:09.365Z,6.27
2023-04-02T03:09:45.970Z,6.32
2023-04-02T03:12:37.685Z,6.19
2023-04-02T03:15:19.543Z,6.13
2023-04-02T03:18:00.337Z,6.09
2023-04-02T03:20:58.390Z,6.05
2023-04-02T03:23:37.932Z,5.93
2023-04-02T03:26:11.039Z,5.79
2023-04-02T03:28:50.421Z,5.84
2023-04-02T03:31:31.078Z,5.72
2023-04-02T03:34:21.779Z,5.72
2023-04-02T03:37:08.166Z,5.77
2023-04-02T03:39:42.980Z,5.76
2023-04-02T03:42:13.343Z,5.76
2023-04-02T03:45:03.330Z,5.71
2023-04-02T03:47:59.522Z,5.62
2023-04-02T03:50:34.087Z,5.52
2023-04-02T03:53:05.227Z,5.47
2023-04-02T03:55:37.429Z,5.42
2023-04-02T03:58:29.827Z,5.38
2023-04-02T04:01:09.254Z,5.33
2023-04-02T04:03:50.152Z,5.31
2023-04-02T04:06:24.513Z,5.23
2023-04-02T04:09:00.048Z,5.18
2023-04-02T04:11:37.004Z,5.13
2023-04-02T04:14:13.725Z,5.13
2023-04-02T04:17:00.337Z,5.09
2023-04-02T04:19:40.905Z,5.06
2023-04-02T04:22:20.343Z,4.93
2023-04-02T04:24:48.554Z,4.88
2023-04-02T04:27:33.967Z,4.81
2023-04-02T04:30:06.651Z,4.77
2023-04-02T04:32:39.500Z,4.72
2023-04-02T04:35:15.703Z,4.66
2023-04-02T04:37:50.194Z,4.59
2023-04-02T04:40:29.128Z,4.59
2023-04-02T04:43:02.337Z,4.61
2023-04-02T04:45:51.025Z,4.61
2023-04-02T04:48:53.602Z,4.59
2023-04-02T04:51:47.455Z,4.63
2023-04-02T04:54:16.576Z,4.62
2023-04-02T04:56:56.583Z,4.60
2023-04-02T04:59:51.002Z,4.62
2023-04-02T05:02:27.129Z,4.64
2023-04-02T05:04:54.691Z,4.59
2023-04-02T05:07:47.477Z,4.59
2023-04-02T05:10:39.251Z,4.51
2023-04-02T05:13:22.998Z,4.44
2023-04-02T05:16:01.993Z,4.39
2023-04-02T05:18:33.061Z,4.34
2023-04-02T05:21:25.269Z,4.26
2023-04-02T05:24:00.370Z,4.22
2023-04-02T05:26:42.472Z,4.19
2023-04-02T05:29:13.731Z,4.10
2023-04-02T05:31:50.607Z,4.06
2023-04-02T05:34:26.581Z,3.97
2023-04-02T05:36:56.027Z,3.90
2023-04-02T05:39:25.633Z,3.81
2023-04-02T05:42:05.532Z,3.79
2023-04-02T05:44:39.058Z,3.69
2023-04-02T05:47:12.615Z,3.70
2023-04-02T05:49:40.112Z,3.74
2023-04-02T05:52:13.271Z,3.73
2023-04-02T05:54:55.297Z,3.77
2023-04-02T05:57:44.590Z,3.79
2023-04-02T06:00:30.146Z,3.74
2023-04-02T06:03:16.468Z,3.79
2023-04-02T06:05:46.901Z,3.78
2023-04-02T06:08:24.210Z,3.79
2023-04-02T06:11:01.716Z,3.79
2023-04-02T06:13:29.471Z,3.78
2023-04-02T06:15:56.876Z,3.84
2023-04-02T06:18:27.619Z,4.33
2023-04-02T06:20:56.205Z,4.42
2023-04-02T06:23:40.353Z,4.17
2023-04-02T06:26:33.439Z,4.05
2023-04-02T06:29:09.241Z,3.91
2023-04-02T06:31:39.426Z,3.83
2023-04-02T06:34:23.110Z,3.73
2023-04-02T06:36:54.934Z,3.41
2023-04-02T06:39:24.648Z,3.33
2023-04-02T06:42:17.293Z,3.27
2023-04-02T06:44:44.915Z,3.25
2023-04-02T06:47:39.927Z,3.24
2023-04-02T06:50:17.152Z,3.17
2023-04-02T06:52:51.307Z,3.11
2023-04-02T06:55:22.021Z,3.10
2023-04-02T06:57:49.579Z,3.11
2023-04-02T07:00:34.965Z,3.18
2023-04-02T07:03:06.907Z,3.18
2023-04-02T07:05:34.517Z,3.17
2023-04-02T07:08:02.099Z,3.22
2023-04-02T07:11:02.334Z,3.18
2023-04-02T07:13:29.740Z,3.17
2023-04-02T07:15:58.303Z,3.15
2023-04-02T07:18:34.454Z,3.15
2023-04-02T07:21:02.017Z,3.08
2023-04-02T07:23:30.577Z,3.07
2023-04-02T07:25:58.695Z,3.06
2023-04-02T07:28:26.816Z,3.08
2023-04-02T07:31:00.114Z,3.15
2023-04-02T07:33:30.637Z,3.20
2023-04-02T07:35:59.047Z,3.15
2023-04-02T07:38:26.882Z,3.14
2023-04-02T07:40:54.590Z,3.26
2023-04-02T07:43:23.512Z,3.26
2023-04-02T07:45:51.983Z,3.29
2023-04-02T07:48:26.698Z,3.25
2023-04-02T07:50:53.843Z,3.32
2023-04-02T07:53:34.721Z,3.41
2023-04-02T07:56:04.085Z,3.63
2023-04-02T07:58:32.902Z,3.93
2023-04-02T08:01:02.043Z,3.92
2023-04-02T08:03:29.868Z,3.84
2023-04-02T08:05:59.008Z,3.85
2023-04-02T08:08:27.467Z,3.84
2023-04-02T08:10:55.857Z,3.86
2023-04-02T08:13:23.014Z,3.92
2023-04-02T08:15:50.700Z,3.96
2023-04-02T08:18:17.852Z,3.96
2023-04-02T08:20:45.394Z,3.90
2023-04-02T08:23:18.298Z,3.88
2023-04-02T08:25:46.532Z,3.89
2023-04-02T08:28:21.686Z,3.89
2023-04-02T08:30:51.670Z,3.96
2023-04-02T08:33:20.061Z,4.01
2023-04-02T08:35:48.966Z,3.97
2023-04-02T08:38:18.896Z,3.98
2023-04-02T08:40:50.769Z,4.05
2023-04-02T08:44:01.151Z,4.09
2023-04-02T08:46:35.313Z,4.13
2023-04-02T08:49:15.194Z,4.14
2023-04-02T08:51:46.005Z,4.21
2023-04-02T08:54:24.670Z,4.21
2023-04-02T08:57:22.599Z,4.30
2023-04-02T08:59:57.489Z,4.37
2023-04-02T09:03:02.872Z,4.44
2023-04-02T09:05:34.786Z,4.32
2023-04-02T09:08:14.284Z,4.33
2023-04-02T09:11:00.089Z,4.35
2023-04-02T09:13:30.445Z,4.25
2023-04-02T09:16:22.796Z,4.29
2023-04-02T09:18:53.115Z,4.24
2023-04-02T09:21:37.628Z,4.23
2023-04-02T09:24:05.505Z,4.25
2023-04-02T09:26:34.653Z,4.26
2023-04-02T09:29:16.121Z,4.31
2023-04-02T09:31:55.910Z,4.29
2023-04-02T09:34:37.348Z,4.29
2023-04-02T09:37:31.170Z,4.30
2023-04-02T09:40:17.262Z,4.37
2023-04-02T09:42:44.866Z,4.35
2023-04-02T09:45:22.507Z,4.44
2023-04-02T09:47:51.807Z,4.31
2023-04-02T09:50:32.052Z,4.33
2023-04-02T09:53:17.119Z,4.34
2023-04-02T09:55:50.769Z,4.33
2023-04-02T09:58:19.169Z,4.27
2023-04-02T10:00:55.542Z,4.19
2023-04-02T10:03:28.756Z,4.23
2023-04-02T10:06:15.041Z,4.37
2023-04-02T10:08:45.954Z,4.55
2023-04-02T10:11:18.596Z,4.68
2023-04-02T10:14:00.987Z,4.76
2023-04-02T10:16:35.563Z,4.86
2023-04-02T10:19:32.722Z,4.99
2023-04-02T10:22:04.595Z,5.10
2023-04-02T10:24:34.165Z,5.12
2023-04-02T10:27:18.031Z,5.03
2023-04-02T10:30:05.752Z,5.04
2023-04-02T10:33:21.782Z,4.98
2023-04-02T10:36:10.731Z,4.98
2023-04-02T10:38:46.458Z,4.90
2023-04-02T10:41:17.358Z,4.90
2023-04-02T10:44:18.918Z,4.78
2023-04-02T10:47:12.742Z,4.74
2023-04-02T10:49:56.365Z,4.72
2023-04-02T10:52:53.524Z,4.56
2023-04-02T10:55:30.677Z,4.46
2023-04-02T10:58:03.868Z,4.41
2023-04-02T11:00:41.698Z,4.48
2023-04-02T11:03:17.243Z,4.60
2023-04-02T11:05:52.559Z,4.65
2023-04-02T11:08:22.687Z,4.66
2023-04-02T11:11:03.330Z,4.53
2023-04-02T11:13:43.410Z,4.50
2023-04-02T11:16:15.830Z,4.50
2023-04-02T11:18:43.403Z,4.58
2023-04-02T11:21:51.063Z,4.72
2023-04-02T11:24:37.474Z,4.87
2023-04-02T11:27:10.784Z,4.90
2023-04-02T11:29:41.094Z,5.02
2023-04-02T11:32:36.064Z,5.06
2023-04-02T11:35:31.780Z,5.09
2023-04-02T11:38:20.060Z,5.00
2023-04-02T11:40:56.006Z,4.91
2023-04-02T11:43:34.953Z,4.85
2023-04-02T11:46:17.371Z,4.76
2023-04-02T11:48:45.006Z,4.61
2023-04-02T11:51:22.866Z,4.57
2023-04-02T11:53:58.796Z,4.63
2023-04-02T11:56:40.342Z,4.62
2023-04-02T11:59:58.415Z,4.65
2023-04-02T12:02:32.387Z,4.71
2023-04-02T12:05:05.430Z,4.71
2023-04-02T12:08:28.845Z,4.63
2023-04-02T12:11:00.836Z,4.49
2023-04-02T12:13:41.157Z,4.50
2023-04-02T12:16:12.614Z,4.41
2023-04-02T12:18:51.616Z,4.35
2023-04-02T12:21:21.157Z,4.33
2023-04-02T12:23:52.159Z,4.39
2023-04-02T12:26:37.927Z,4.41
2023-04-02T12:29:25.207Z,4.45
2023-04-02T12:31:55.778Z,4.50
2023-04-02T12:34:27.938Z,4.56
2023-04-02T12:37:04.522Z,4.59
2023-04-02T12:39:34.998Z,4.52
2023-04-02T12:42:03.654Z,4.41
2023-04-02T12:44:32.478Z,4.43
2023-04-02T12:47:00.175Z,4.50
2023-04-02T12:49:41.907Z,4.52
2023-04-02T12:52:15.537Z,4.39
2023-04-02T12:54:49.969Z,4.42
2023-04-02T12:57:40.316Z,4.42
2023-04-02T13:00:23.401Z,4.41
2023-04-02T13:02:59.009Z,4.50
2023-04-02T13:05:42.318Z,4.66
2023-04-02T13:08:41.822Z,4.73
2023-04-02T13:11:10.880Z,4.73
2023-04-02T13:13:41.552Z,4.69
2023-04-02T13:16:18.151Z,4.61
2023-04-02T13:18:48.219Z,4.56
2023-04-02T13:21:24.240Z,4.55
2023-04-02T13:23:51.450Z,4.51
2023-04-02T13:26:27.471Z,4.46
2023-04-02T13:29:22.159Z,4.44
2023-04-02T13:31:50.736Z,4.46
2023-04-02T13:34:18.833Z,4.52
2023-04-02T13:36:47.018Z,4.65
2023-04-02T13:39:14.877Z,4.72
2023-04-02T13:41:47.985Z,4.68
2023-04-02T13:44:21.526Z,4.64
2023-04-02T13:46:52.136Z,4.66
2023-04-02T13:49:20.437Z,4.68
2023-04-02T13:52:05.533Z,4.77
2023-04-02T13:54:42.159Z,4.68
2023-04-02T13:57:09.968Z,4.68
2023-04-02T13:59:37.240Z,4.71
2023-04-02T14:02:13.717Z,4.63
2023-04-02T14:04:50.630Z,4.65
2023-04-02T14:07:34.143Z,4.57
2023-04-02T14:10:26.711Z,4.51
2023-04-02T14:13:21.348Z,4.49
2023-04-02T14:16:07.951Z,4.31
2023-04-02T14:18:50.744Z,4.26
2023-04-02T14:21:54.277Z,4.29
2023-04-02T14:24:52.293Z,4.29
2023-04-02T14:27:19.813Z,4.34
2023-04-02T14:29:59.920Z,4.35
2023-04-02T14:32:56.073Z,4.44
2023-04-02T14:35:34.204Z,4.41
2023-04-02T14:38:10.430Z,4.49
2023-04-02T14:40:38.215Z,4.52
2023-04-02T14:43:12.383Z,4.50
2023-04-02T14:46:00.998Z,4.42
2023-04-02T14:48:54.943Z,4.44
2023-04-02T14:51:57.381Z,4.46
2023-04-02T14:54:36.813Z,4.31
2023-04-02T14:57:12.439Z,4.29
2023-04-02T15:00:01.574Z,4.26
2023-04-02T15:02:54.056Z,4.30
2023-04-02T15:05:41.402Z,4.36
2023-04-02T15:08:23.629Z,4.34
2023-04-02T15:11:08.818Z,4.32
2023-04-02T15:13:47.183Z,4.34
2023-04-02T15:16:19.785Z,4.39
2023-04-02T15:18:53.291Z,4.44
2023-04-02T15:21:25.901Z,4.45
2023-04-02T15:24:14.591Z,4.42
2023-04-02T15:27:25.484Z,4.44
2023-04-02T15:30:19.286Z,4.45
2023-04-02T15:32:50.771Z,4.49
2023-04-02T15:35:46.118Z,4.57
2023-04-02T15:38:50.084Z,4.53
2023-04-02T15:41:27.908Z,4.52
2023-04-02T15:44:15.748Z,4.48
2023-04-02T15:47:05.450Z,4.47
2023-04-02T15:49:33.750Z,4.46
2023-04-02T15:52:25.438Z,4.53
2023-04-02T15:55:19.753Z,4.58
2023-04-02T15:58:19.472Z,4.50
2023-04-02T16:01:18.855Z,4.44
2023-04-02T16:04:20.285Z,4.48
2023-04-02T16:07:08.391Z,4.44
2023-04-02T16:09:58.482Z,4.38
2023-04-02T16:12:34.052Z,4.39
2023-04-02T16:15:27.363Z,4.37
2023-04-02T16:18:03.911Z,4.38
2023-04-02T16:21:05.246Z,4.39
2023-04-02T16:23:39.208Z,4.35
2023-04-02T16:26:29.990Z,4.39
2023-04-02T16:29:09.817Z,4.38
2023-04-02T16:31:48.192Z,4.35
2023-04-02T16:34:43.710Z,4.33
2023-04-02T16:37:18.231Z,4.30
2023-04-02T16:40:04.200Z,4.32
2023-04-02T16:43:00.676Z,4.34
2023-04-02T16:45:39.528Z,4.32
2023-04-02T16:48:26.326Z,4.33
2023-04-02T16:51:03.371Z,4.31
2023-04-02T16:54:01.481Z,4.34
2023-04-02T16:56:49.177Z,4.35
2023-04-02T16:59:34.211Z,4.34
2023-04-02T17:02:23.339Z,4.28
2023-04-02T17:04:57.352Z,4.30
2023-04-02T17:07:50.831Z,4.31
2023-04-02T17:10:32.491Z,4.27
2023-04-02T17:13:26.920Z,4.21
2023-04-02T17:16:23.235Z,4.17
2023-04-02T17:18:59.241Z,4.14
2023-04-02T17:21:29.831Z,4.08
2023-04-02T17:24:31.042Z,4.10
2023-04-02T17:27:12.178Z,4.13
2023-04-02T17:29:45.652Z,4.10
2023-04-02T17:32:22.386Z,4.08
2023-04-02T17:34:50.986Z,4.09
2023-04-02T17:37:40.093Z,4.10
2023-04-02T17:40:33.221Z,4.12
2023-04-02T17:43:45.461Z,4.11
2023-04-02T17:46:50.884Z,4.12
2023-04-02T17:49:42.268Z,4.15
2023-04-02T17:52:35.104Z,4.13
2023-04-02T17:55:32.022Z,4.09
2023-04-02T17:58:28.183Z,4.10
2023-04-02T18:01:21.602Z,4.13
2023-04-02T18:04:07.921Z,4.12
2023-04-02T18:06:51.016Z,4.17
2023-04-02T18:09:40.336Z,4.18
2023-04-02T18:12:19.648Z,4.20
2023-04-02T18:15:06.321Z,4.17
2023-04-02T18:18:11.165Z,4.16
2023-04-02T18:21:18.284Z,4.17
2023-04-02T18:24:10.213Z,4.21
2023-04-02T18:26:52.322Z,4.14
2023-04-02T18:29:57.996Z,4.08
2023-04-02T18:32:57.183Z,4.06
2023-04-02T18:35:54.401Z,4.06
2023-04-02T18:38:43.068Z,4.02
2023-04-02T18:41:43.278Z,3.97
2023-04-02T18:44:41.264Z,3.96
2023-04-02T18:47:30.898Z,3.94
2023-04-02T18:50:36.390Z,3.92
2023-04-02T18:53:20.275Z,3.86
2023-04-02T18:56:10.176Z,3.80
2023-04-02T18:59:05.702Z,3.82
2023-04-02T19:01:47.029Z,3.79
2023-04-02T19:04:37.124Z,3.81
2023-04-02T19:07:19.632Z,3.75
2023-04-02T19:09:52.736Z,3.79
2023-04-02T19:12:26.437Z,3.82
2023-04-02T19:14:56.815Z,3.81
2023-04-02T19:17:36.878Z,3.77
2023-04-02T19:20:59.359Z,3.78
2023-04-02T19:23:30.765Z,3.73
2023-04-02T19:26:02.508Z,3.72
2023-04-02T19:29:11.219Z,3.76
2023-04-02T19:32:03.758Z,3.77
2023-04-02T19:34:58.765Z,3.74
2023-04-02T19:37:39.753Z,3.68
2023-04-02T19:40:14.054Z,3.67
2023-04-02T19:43:03.085Z,3.66
2023-04-02T19:45:43.119Z,3.68
2023-04-02T19:48:25.964Z,3.67
2023-04-02T19:50:55.343Z,3.66
2023-04-02T19:53:24.210Z,3.66
2023-04-02T19:55:55.798Z,3.69
2023-04-02T19:58:38.830Z,3.73
2023-04-02T20:01:07.147Z,3.64
2023-04-02T20:03:35.708Z,3.65
2023-04-02T20:06:06.670Z,3.60
2023-04-02T20:08:39.971Z,3.60
2023-04-02T20:11:08.691Z,3.58
2023-04-02T20:13:39.285Z,3.57
2023-04-02T20:16:08.715Z,3.59
2023-04-02T20:18:37.950Z,3.53
2023-04-02T20:21:07.814Z,3.55
2023-04-02T20:23:37.294Z,3.58
2023-04-02T20:26:08.044Z,3.58
2023-04-02T20:28:37.278Z,3.57
2023-04-02T20:31:19.250Z,3.51
2023-04-02T20:33:48.310Z,3.53
2023-04-02T20:36:17.730Z,3.50
2023-04-02T20:38:46.775Z,3.48
2023-04-02T20:41:16.531Z,3.50
2023-04-02T20:43:43.899Z,3.47
2023-04-02T20:46:13.023Z,3.41
2023-04-02T20:48:41.127Z,3.45
2023-04-02T20:54:14.961Z,3.36
2023-04-02T20:56:43.511Z,3.38
2023-04-02T20:59:11.406Z,3.31
2023-04-02T21:01:38.959Z,3.37
2023-04-02T21:04:07.331Z,3.32
2023-04-02T21:06:38.552Z,3.36
2023-04-02T21:09:11.230Z,3.36
2023-04-02T21:11:38.908Z,3.30
2023-04-02T21:14:06.710Z,3.26
2023-04-02T21:16:35.228Z,3.29
2023-04-02T21:19:07.432Z,3.27
2023-04-02T21:21:36.114Z,3.26
2023-04-02T21:24:06.024Z,3.24
2023-04-02T21:26:36.233Z,3.19
2023-04-02T21:29:04.579Z,3.16
2023-04-02T21:31:38.126Z,3.18
2023-04-02T21:34:08.792Z,3.17
2023-04-02T21:36:41.062Z,3.17
2023-04-02T21:39:17.127Z,3.16
2023-04-02T21:41:53.521Z,3.03
2023-04-02T21:44:23.002Z,3.11
2023-04-02T21:46:53.584Z,3.12
2023-04-02T21:49:22.948Z,3.15
2023-04-02T21:51:53.844Z,3.10
2023-04-02T21:54:21.865Z,3.10
2023-04-02T21:56:49.693Z,3.10
2023-04-02T21:59:18.063Z,3.05
2023-04-02T22:01:48.922Z,3.06
2023-04-02T22:04:19.952Z,3.05
2023-04-02T22:06:47.330Z,3.07
2023-04-02T22:09:20.599Z,3.08
2023-04-02T22:11:51.126Z,3.08
2023-04-02T22:14:19.490Z,3.01
2023-04-02T22:16:47.809Z,3.02
2023-04-02T22:19:16.336Z,3.08
2023-04-02T22:21:44.410Z,3.09
2023-04-02T22:24:15.829Z,3.07
2023-04-02T22:26:43.197Z,3.12
2023-04-02T22:29:12.032Z,3.15
2023-04-02T22:31:40.351Z,3.16
2023-04-02T22:34:09.716Z,3.16
2023-04-02T22:36:39.265Z,3.11
2023-04-02T22:39:10.030Z,3.08
2023-04-02T22:41:38.705Z,3.08
2023-04-02T22:44:06.228Z,3.02
2023-04-02T22:46:36.261Z,3.01
2023-04-02T22:49:03.587Z,2.99
2023-04-02T22:51:37.420Z,3.00
2023-04-02T22:54:11.902Z,2.96
2023-04-02T22:56:39.376Z,3.00
2023-04-02T22:59:06.904Z,3.01
2023-04-02T23:01:36.271Z,3.01
2023-04-02T23:04:05.502Z,2.97
2023-04-02T23:06:32.804Z,2.97
2023-04-02T23:09:02.403Z,2.95
2023-04-02T23:11:29.742Z,2.91
2023-04-02T23:13:58.325Z,2.90
2023-04-02T23:16:29.002Z,2.89
2023-04-02T23:18:58.389Z,2.86
2023-04-02T23:21:26.704Z,2.85
2023-04-02T23:23:54.998Z,2.78
2023-04-02T23:26:29.706Z,2.81
2023-04-02T23:29:00.799Z,2.82
2023-04-02T23:31:29.839Z,2.83
2023-04-02T23:33:57.402Z,2.84
2023-04-02T23:36:33.200Z,2.79
2023-04-02T23:39:11.629Z,2.77
2023-04-02T23:41:41.222Z,2.79
2023-04-02T23:44:09.856Z,2.77
2023-04-02T23:46:37.451Z,2.75
2023-04-02T23:49:04.652Z,2.75
2023-04-02T23:51:33.107Z,2.76
2023-04-02T23:54:00.947Z,2.72
2023-04-02T23:56:28.529Z,2.67
2023-04-02T23:58:57.068Z,2.66
